createdAt,value
2018-07-04T00:00:40.169Z,859.03
2018-07-04T00:01:40.049Z,859.01
2018-07-04T00:02:39.927Z,859.00
2018-07-04T00:03:39.802Z,858.98
2018-07-04T00:04:39.679Z,858.97
2018-07-04T00:05:39.555Z,859.01
2018-07-04T00:06:39.429Z,859.01
2018-07-04T00:07:39.309Z,859.00
2018-07-04T00:08:39.182Z,858.98
2018-07-04T00:09:39.059Z,859.00
2018-07-04T00:10:38.936Z,858.99
2018-07-04T00:11:38.811Z,858.99
2018-07-04T00:12:38.690Z,859.03
2018-07-04T00:13:38.563Z,859.04
2018-07-04T00:14:38.441Z,859.05
2018-07-04T00:15:38.318Z,859.07
2018-07-04T00:16:38.194Z,859.09
2018-07-04T00:17:38.072Z,859.09
2018-07-04T00:18:37.945Z,859.09
2018-07-04T00:19:37.823Z,859.10
2018-07-04T00:20:37.703Z,859.10
2018-07-04T00:21:37.589Z,859.14
2018-07-04T00:24:08.948Z,859.15
2018-07-04T00:25:08.760Z,859.14
2018-07-04T00:27:01.480Z,859.08
2018-07-04T00:28:01.296Z,859.04
2018-07-04T00:29:53.992Z,859.04
2018-07-04T00:30:53.832Z,859.03
2018-07-04T00:32:46.555Z,859.00
2018-07-04T00:33:46.369Z,858.98
2018-07-04T00:35:39.051Z,858.96
2018-07-04T00:36:38.908Z,858.94
2018-07-04T00:38:31.627Z,858.90
2018-07-04T00:39:31.443Z,858.83
2018-07-04T00:41:24.174Z,858.78
2018-07-04T00:42:23.987Z,858.79
2018-07-04T00:44:16.707Z,858.74
2018-07-04T00:45:16.533Z,858.72
2018-07-04T00:46:16.405Z,858.67
2018-07-04T00:47:16.284Z,858.70
2018-07-04T00:48:16.160Z,858.69
2018-07-04T00:49:16.036Z,858.69
2018-07-04T00:50:15.910Z,858.71
2018-07-04T00:51:15.789Z,858.71
2018-07-04T00:52:15.663Z,858.71
2018-07-04T00:53:15.540Z,858.72
2018-07-04T00:54:15.418Z,858.71
2018-07-04T00:55:15.296Z,858.72
2018-07-04T00:56:15.169Z,858.72
2018-07-04T00:57:15.045Z,858.69
2018-07-04T00:58:14.919Z,858.68
2018-07-04T00:59:14.796Z,858.66
2018-07-04T01:00:14.673Z,858.62
2018-07-04T01:01:14.551Z,858.62
2018-07-04T01:02:14.424Z,858.58
2018-07-04T01:03:14.304Z,858.55
2018-07-04T01:04:14.179Z,858.51
2018-07-04T01:05:14.110Z,858.53
2018-07-04T01:06:13.942Z,858.51
2018-07-04T01:07:13.811Z,858.53
2018-07-04T01:08:13.687Z,858.59
2018-07-04T01:09:13.567Z,858.55
2018-07-04T01:10:13.439Z,858.60
2018-07-04T01:11:13.316Z,858.60
2018-07-04T01:12:13.192Z,858.61
2018-07-04T01:13:13.070Z,858.65
2018-07-04T01:14:12.945Z,858.65
2018-07-04T01:15:12.822Z,858.63
2018-07-04T01:16:12.710Z,858.67
2018-07-04T01:17:12.576Z,858.65
2018-07-04T01:18:12.452Z,858.67
2018-07-04T01:19:12.329Z,858.64
2018-07-04T01:20:12.205Z,858.61
2018-07-04T01:21:12.081Z,858.61
2018-07-04T01:22:11.957Z,858.61
2018-07-04T01:23:11.834Z,858.57
2018-07-04T01:24:11.711Z,858.60
2018-07-04T01:25:11.589Z,858.60
2018-07-04T01:26:11.464Z,858.58
2018-07-04T01:27:11.341Z,858.58
2018-07-04T01:28:11.216Z,858.58
2018-07-04T01:29:11.093Z,858.58
2018-07-04T01:30:10.970Z,858.60
2018-07-04T01:31:10.849Z,858.63
2018-07-04T01:32:10.726Z,858.64
2018-07-04T01:33:10.602Z,858.67
2018-07-04T01:34:10.483Z,858.68
2018-07-04T01:35:10.354Z,858.68
2018-07-04T01:36:10.228Z,858.69
2018-07-04T01:37:10.107Z,858.65
2018-07-04T01:38:09.981Z,858.65
2018-07-04T01:39:09.859Z,858.62
2018-07-04T01:40:09.734Z,858.60
2018-07-04T01:41:09.611Z,858.61
2018-07-04T01:42:09.493Z,858.67
2018-07-04T01:43:09.364Z,858.65
2018-07-04T01:44:09.237Z,858.70
2018-07-04T01:45:09.118Z,858.72
2018-07-04T01:46:08.990Z,858.72
2018-07-04T01:47:08.866Z,858.74
2018-07-04T01:48:08.751Z,858.74
2018-07-04T01:49:08.621Z,858.79
2018-07-04T01:50:08.497Z,858.77
2018-07-04T01:51:08.372Z,858.77
2018-07-04T01:52:08.249Z,858.80
2018-07-04T01:53:08.125Z,858.83
2018-07-04T01:54:08.001Z,858.86
2018-07-04T01:55:07.879Z,858.85
2018-07-04T01:56:07.755Z,858.89
2018-07-04T01:57:07.634Z,858.86
2018-07-04T01:58:07.507Z,858.90
2018-07-04T01:59:07.384Z,858.92
2018-07-04T02:00:07.261Z,858.89
2018-07-04T02:01:07.135Z,858.90
2018-07-04T02:02:07.016Z,858.93
2018-07-04T02:03:06.885Z,858.92
2018-07-04T02:04:06.775Z,858.91
2018-07-04T02:05:06.642Z,858.94
2018-07-04T02:06:06.516Z,858.88
2018-07-04T02:07:06.390Z,858.91
2018-07-04T02:08:06.271Z,858.91
2018-07-04T02:09:06.143Z,858.86
2018-07-04T02:10:06.019Z,858.83
2018-07-04T02:11:05.895Z,858.84
2018-07-04T02:12:05.770Z,858.82
2018-07-04T02:13:05.652Z,858.81
2018-07-04T02:14:05.528Z,858.82
2018-07-04T02:15:05.400Z,858.78
2018-07-04T02:16:05.275Z,858.76
2018-07-04T02:17:05.155Z,858.74
2018-07-04T02:18:05.031Z,858.71
2018-07-04T02:19:04.904Z,858.68
2018-07-04T02:20:04.780Z,858.65
2018-07-04T02:21:04.659Z,858.63
2018-07-04T02:22:04.533Z,858.61
2018-07-04T02:23:04.408Z,858.60
2018-07-04T02:24:04.285Z,858.55
2018-07-04T02:25:04.159Z,858.54
2018-07-04T02:26:04.036Z,858.58
2018-07-04T02:27:03.914Z,858.56
2018-07-04T02:28:03.787Z,858.63
2018-07-04T02:29:03.664Z,858.61
2018-07-04T02:30:03.540Z,858.59
2018-07-04T02:31:03.413Z,858.60
2018-07-04T02:32:03.289Z,858.58
2018-07-04T02:33:03.167Z,858.63
2018-07-04T02:34:03.042Z,858.61
2018-07-04T02:35:02.916Z,858.64
2018-07-04T02:36:02.795Z,858.66
2018-07-04T02:37:02.673Z,858.63
2018-07-04T02:38:02.557Z,858.62
2018-07-04T02:39:02.422Z,858.60
2018-07-04T02:40:02.299Z,858.61
2018-07-04T02:41:02.176Z,858.60
2018-07-04T02:42:02.048Z,858.57
2018-07-04T02:43:01.925Z,858.57
2018-07-04T02:44:01.806Z,858.58
2018-07-04T02:45:01.751Z,858.54
2018-07-04T02:46:01.553Z,858.57
2018-07-04T02:47:01.435Z,858.51
2018-07-04T02:48:01.308Z,858.52
2018-07-04T02:49:01.185Z,858.58
2018-07-04T02:50:01.059Z,858.60
2018-07-04T02:51:00.932Z,858.57
2018-07-04T02:52:00.814Z,858.59
2018-07-04T02:53:00.688Z,858.56
2018-07-04T02:54:00.561Z,858.57
2018-07-04T02:55:00.436Z,858.58
2018-07-04T02:56:00.313Z,858.56
2018-07-04T02:57:00.189Z,858.48
2018-07-04T02:58:00.064Z,858.52
2018-07-04T02:58:59.940Z,858.54
2018-07-04T02:59:59.818Z,858.48
2018-07-04T03:00:59.693Z,858.48
2018-07-04T03:01:59.573Z,858.53
2018-07-04T03:02:59.443Z,858.52
2018-07-04T03:03:59.322Z,858.53
2018-07-04T03:04:59.194Z,858.55
2018-07-04T03:05:59.077Z,858.59
2018-07-04T03:06:58.947Z,858.58
2018-07-04T03:07:58.823Z,858.58
2018-07-04T03:08:58.699Z,858.59
2018-07-04T03:09:58.574Z,858.61
2018-07-04T03:10:58.451Z,858.59
2018-07-04T03:11:58.327Z,858.64
2018-07-04T03:12:58.203Z,858.65
2018-07-04T03:13:58.079Z,858.61
2018-07-04T03:14:57.955Z,858.63
2018-07-04T03:15:57.835Z,858.57
2018-07-04T03:16:57.708Z,858.57
2018-07-04T03:17:57.580Z,858.56
2018-07-04T03:18:57.461Z,858.51
2018-07-04T03:19:57.337Z,858.54
2018-07-04T03:20:57.215Z,858.58
2018-07-04T03:21:57.093Z,858.59
2018-07-04T03:22:56.962Z,858.62
2018-07-04T03:23:56.852Z,858.62
2018-07-04T03:24:56.719Z,858.59
2018-07-04T03:25:56.591Z,858.61
2018-07-04T03:26:56.467Z,858.60
2018-07-04T03:27:56.343Z,858.58
2018-07-04T03:28:56.220Z,858.59
2018-07-04T03:29:56.094Z,858.61
2018-07-04T03:30:55.970Z,858.61
2018-07-04T03:31:55.850Z,858.63
2018-07-04T03:32:55.778Z,858.66
2018-07-04T03:33:55.597Z,858.70
2018-07-04T03:34:55.476Z,858.70
2018-07-04T03:35:55.362Z,858.71
2018-07-04T03:36:55.226Z,858.79
2018-07-04T03:37:55.101Z,858.82
2018-07-04T03:38:54.976Z,858.79
2018-07-04T03:39:54.852Z,858.85
2018-07-04T03:40:54.729Z,858.88
2018-07-04T03:41:54.606Z,858.88
2018-07-04T03:42:54.479Z,858.89
2018-07-04T03:43:54.354Z,858.88
2018-07-04T03:44:54.231Z,858.88
2018-07-04T03:45:54.108Z,858.86
2018-07-04T03:46:53.985Z,858.85
2018-07-04T03:47:53.862Z,858.86
2018-07-04T03:48:53.734Z,858.90
2018-07-04T03:49:53.615Z,858.93
2018-07-04T03:50:53.484Z,858.92
2018-07-04T03:51:53.363Z,858.91
2018-07-04T03:52:53.238Z,858.97
2018-07-04T03:53:53.112Z,858.95
2018-07-04T03:54:52.992Z,858.91
2018-07-04T03:55:52.865Z,858.96
2018-07-04T03:56:52.740Z,858.93
2018-07-04T03:57:52.618Z,858.95
2018-07-04T03:58:52.491Z,858.95
2018-07-04T03:59:52.368Z,858.97
2018-07-04T04:00:52.244Z,858.89
2018-07-04T04:01:52.120Z,858.94
2018-07-04T04:02:51.996Z,858.92
2018-07-04T04:03:51.871Z,858.94
2018-07-04T04:04:51.747Z,858.89
2018-07-04T04:05:51.624Z,858.89
2018-07-04T04:06:51.498Z,858.88
2018-07-04T04:07:51.374Z,858.87
2018-07-04T04:08:51.250Z,858.82
2018-07-04T04:09:51.125Z,858.86
2018-07-04T04:10:51.008Z,858.81
2018-07-04T04:11:50.877Z,858.85
2018-07-04T04:12:50.759Z,858.82
2018-07-04T04:13:50.631Z,858.82
2018-07-04T04:14:50.506Z,858.83
2018-07-04T04:15:50.382Z,858.85
2018-07-04T04:16:50.255Z,858.86
2018-07-04T04:17:50.136Z,858.85
2018-07-04T04:18:50.008Z,858.84
2018-07-04T04:19:49.926Z,858.84
2018-07-04T04:20:49.759Z,858.89
2018-07-04T04:21:49.636Z,858.85
2018-07-04T04:22:49.509Z,858.86
2018-07-04T04:23:49.389Z,858.86
2018-07-04T04:24:49.262Z,858.83
2018-07-04T04:25:49.758Z,858.84
2018-07-04T04:26:49.016Z,858.80
2018-07-04T04:27:48.889Z,858.86
2018-07-04T04:28:48.765Z,858.84
2018-07-04T04:29:48.641Z,858.84
2018-07-04T04:30:48.523Z,858.83
2018-07-04T04:31:48.394Z,858.85
2018-07-04T04:32:48.271Z,858.82
2018-07-04T04:33:48.188Z,858.83
2018-07-04T04:34:48.022Z,858.86
2018-07-04T04:35:47.900Z,858.86
2018-07-04T04:36:47.774Z,858.87
2018-07-04T04:37:47.650Z,858.90
2018-07-04T04:38:47.528Z,858.84
2018-07-04T04:39:47.403Z,858.85
2018-07-04T04:40:47.280Z,858.84
2018-07-04T04:41:47.155Z,858.76
2018-07-04T04:42:47.032Z,858.74
2018-07-04T04:43:46.906Z,858.73
2018-07-04T04:44:46.785Z,858.69
2018-07-04T04:45:46.663Z,858.70
2018-07-04T04:46:46.534Z,858.69
2018-07-04T04:47:46.412Z,858.66
2018-07-04T04:48:46.288Z,858.66
2018-07-04T04:49:46.165Z,858.69
2018-07-04T04:50:46.042Z,858.71
2018-07-04T04:51:45.922Z,858.71
2018-07-04T04:52:45.798Z,858.68
2018-07-04T04:53:46.341Z,858.67
2018-07-04T04:54:45.552Z,858.70
2018-07-04T04:55:45.425Z,858.69
2018-07-04T04:56:45.300Z,858.70
2018-07-04T04:57:45.181Z,858.68
2018-07-04T04:58:45.055Z,858.73
2018-07-04T04:59:44.932Z,858.72
2018-07-04T05:00:44.806Z,858.70
2018-07-04T05:01:44.682Z,858.73
2018-07-04T05:02:44.564Z,858.71
2018-07-04T05:03:44.436Z,858.74
2018-07-04T05:04:44.313Z,858.71
2018-07-04T05:05:44.189Z,858.76
2018-07-04T05:06:44.067Z,858.72
2018-07-04T05:07:43.945Z,858.75
2018-07-04T05:08:43.821Z,858.74
2018-07-04T05:09:43.698Z,858.72
2018-07-04T05:10:43.574Z,858.71
2018-07-04T05:11:43.450Z,858.70
2018-07-04T05:12:43.330Z,858.74
2018-07-04T05:13:43.206Z,858.73
2018-07-04T05:14:43.086Z,858.70
2018-07-04T05:15:42.980Z,858.70
2018-07-04T05:16:42.840Z,858.69
2018-07-04T05:17:42.716Z,858.63
2018-07-04T05:18:42.593Z,858.65
2018-07-04T05:19:42.473Z,858.64
2018-07-04T05:20:42.349Z,858.64
2018-07-04T05:21:42.230Z,858.60
2018-07-04T05:22:42.159Z,858.62
2018-07-04T05:23:41.983Z,858.63
2018-07-04T05:24:41.869Z,858.59
2018-07-04T05:25:41.738Z,858.64
2018-07-04T05:26:41.617Z,858.62
2018-07-04T05:27:41.504Z,858.60
2018-07-04T05:28:41.373Z,858.60
2018-07-04T05:29:41.248Z,858.62
2018-07-04T05:30:41.125Z,858.64
2018-07-04T05:31:41.003Z,858.62
2018-07-04T05:32:40.880Z,858.62
2018-07-04T05:33:40.760Z,858.62
2018-07-04T05:34:40.638Z,858.61
2018-07-04T05:35:40.514Z,858.62
2018-07-04T05:36:40.393Z,858.62
2018-07-04T05:37:40.271Z,858.65
2018-07-04T05:38:40.150Z,858.66
2018-07-04T05:39:40.026Z,858.67
2018-07-04T05:40:39.907Z,858.67
2018-07-04T05:41:39.780Z,858.70
2018-07-04T05:42:39.666Z,858.71
2018-07-04T05:43:39.536Z,858.73
2018-07-04T05:44:39.414Z,858.74
2018-07-04T05:45:39.292Z,858.77
2018-07-04T05:46:39.170Z,858.76
2018-07-04T05:47:39.078Z,858.79
2018-07-04T05:48:38.926Z,858.79
2018-07-04T05:49:38.815Z,858.79
2018-07-04T05:50:38.683Z,858.76
2018-07-04T05:51:38.563Z,858.77
2018-07-04T05:52:38.439Z,858.76
2018-07-04T05:53:38.318Z,858.75
2018-07-04T05:54:38.196Z,858.77
2018-07-04T05:55:38.073Z,858.79
2018-07-04T05:56:37.954Z,858.79
2018-07-04T05:57:37.830Z,858.77
2018-07-04T05:58:37.711Z,858.74
2018-07-04T05:59:37.690Z,858.76
2018-07-04T06:00:37.466Z,858.73
2018-07-04T06:01:37.341Z,858.69
2018-07-04T06:02:37.225Z,858.68
2018-07-04T06:03:37.101Z,858.68
2018-07-04T06:04:36.982Z,858.65
2018-07-04T06:05:36.856Z,858.67
2018-07-04T06:06:36.735Z,858.67
2018-07-04T06:07:36.613Z,858.68
2018-07-04T06:08:36.497Z,858.67
2018-07-04T06:09:36.370Z,858.65
2018-07-04T06:10:36.251Z,858.68
2018-07-04T06:11:36.129Z,858.65
2018-07-04T06:12:36.010Z,858.65
2018-07-04T06:13:35.887Z,858.66
2018-07-04T06:14:35.767Z,858.66
2018-07-04T06:15:35.649Z,858.68
2018-07-04T06:16:35.524Z,858.68
2018-07-04T06:17:35.473Z,858.66
2018-07-04T06:18:35.281Z,858.65
2018-07-04T06:19:35.159Z,858.64
2018-07-04T06:20:35.039Z,858.66
2018-07-04T06:21:34.919Z,858.61
2018-07-04T06:22:34.796Z,858.64
2018-07-04T06:23:34.674Z,858.60
2018-07-04T06:24:34.555Z,858.60
2018-07-04T06:25:34.432Z,858.62
2018-07-04T06:26:34.312Z,858.61
2018-07-04T06:27:34.192Z,858.60
2018-07-04T06:28:34.070Z,858.58
2018-07-04T06:29:33.947Z,858.59
2018-07-04T06:30:33.826Z,858.54
2018-07-04T06:31:33.706Z,858.56
2018-07-04T06:32:33.586Z,858.55
2018-07-04T06:33:33.466Z,858.56
2018-07-04T06:34:33.345Z,858.59
2018-07-04T06:35:33.222Z,858.55
2018-07-04T06:36:33.103Z,858.58
2018-07-04T06:37:32.979Z,858.57
2018-07-04T06:38:32.861Z,858.57
2018-07-04T06:39:32.740Z,858.56
2018-07-04T06:40:32.618Z,858.61
2018-07-04T06:41:32.497Z,858.59
2018-07-04T06:42:32.376Z,858.60
2018-07-04T06:43:32.259Z,858.66
2018-07-04T06:44:32.139Z,858.64
2018-07-04T06:45:32.014Z,858.65
2018-07-04T06:46:31.894Z,858.67
2018-07-04T06:47:31.775Z,858.63
2018-07-04T06:48:31.654Z,858.66
2018-07-04T06:49:31.534Z,858.66
2018-07-04T06:50:31.413Z,858.65
2018-07-04T06:51:31.294Z,858.66
2018-07-04T06:52:31.172Z,858.61
2018-07-04T06:53:31.051Z,858.63
2018-07-04T06:54:30.983Z,858.63
2018-07-04T06:55:30.811Z,858.59
2018-07-04T06:56:30.689Z,858.62
2018-07-04T06:57:30.571Z,858.63
2018-07-04T06:58:30.452Z,858.59
2018-07-04T06:59:30.343Z,858.61
2018-07-04T07:00:30.211Z,858.62
2018-07-04T07:01:30.088Z,858.59
2018-07-04T07:02:29.971Z,858.60
2018-07-04T07:03:29.852Z,858.58
2018-07-04T07:04:29.727Z,858.56
2018-07-04T07:05:29.606Z,858.55
2018-07-04T07:06:29.490Z,858.58
2018-07-04T07:07:29.365Z,858.58
2018-07-04T07:08:29.300Z,858.60
2018-07-04T07:09:29.132Z,858.57
2018-07-04T07:10:29.007Z,858.58
2018-07-04T07:11:28.889Z,858.62
2018-07-04T07:12:28.768Z,858.67
2018-07-04T07:13:28.644Z,858.64
2018-07-04T07:14:28.599Z,858.66
2018-07-04T07:15:28.407Z,858.64
2018-07-04T07:16:28.290Z,858.68
2018-07-04T07:17:28.166Z,858.65
2018-07-04T07:18:28.046Z,858.67
2018-07-04T07:19:27.930Z,858.67
2018-07-04T07:20:27.811Z,858.64
2018-07-04T07:21:27.689Z,858.66
2018-07-04T07:22:27.569Z,858.60
2018-07-04T07:23:27.447Z,858.62
2018-07-04T07:24:27.328Z,858.63
2018-07-04T07:25:27.207Z,858.62
2018-07-04T07:26:27.090Z,858.58
2018-07-04T07:27:26.996Z,858.63
2018-07-04T07:28:26.849Z,858.55
2018-07-04T07:29:26.726Z,858.54
2018-07-04T07:30:26.610Z,858.57
2018-07-04T07:31:26.489Z,858.52
2018-07-04T07:32:26.368Z,858.53
2018-07-04T07:33:26.261Z,858.53
2018-07-04T07:34:26.300Z,858.55
2018-07-04T07:35:26.011Z,858.54
2018-07-04T07:36:25.886Z,858.57
2018-07-04T07:37:25.768Z,858.57
2018-07-04T07:38:25.648Z,858.56
2018-07-04T07:39:25.529Z,858.53
2018-07-04T07:40:25.404Z,858.54
2018-07-04T07:41:25.285Z,858.53
2018-07-04T07:42:25.168Z,858.52
2018-07-04T07:43:25.048Z,858.52
2018-07-04T07:44:24.946Z,858.54
2018-07-04T07:45:24.809Z,858.56
2018-07-04T07:46:24.687Z,858.54
2018-07-04T07:47:24.564Z,858.52
2018-07-04T07:48:24.444Z,858.54
2018-07-04T07:49:24.326Z,858.55
2018-07-04T07:50:24.205Z,858.53
2018-07-04T07:51:24.086Z,858.52
2018-07-04T07:52:23.969Z,858.50
2018-07-04T07:53:23.850Z,858.51
2018-07-04T07:54:23.758Z,858.53
2018-07-04T07:55:23.609Z,858.51
2018-07-04T07:56:23.491Z,858.53
2018-07-04T07:57:23.372Z,858.51
2018-07-04T07:58:23.252Z,858.47
2018-07-04T07:59:23.132Z,858.50
2018-07-04T08:00:23.018Z,858.45
2018-07-04T08:01:22.894Z,858.45
2018-07-04T08:02:22.812Z,858.42
2018-07-04T08:03:22.659Z,858.42
2018-07-04T08:04:22.539Z,858.41
2018-07-04T08:05:24.377Z,858.40
2018-07-04T08:06:22.304Z,858.39
2018-07-04T08:07:22.187Z,858.39
2018-07-04T08:08:22.064Z,858.38
2018-07-04T08:09:21.955Z,858.37
2018-07-04T08:10:21.828Z,858.38
2018-07-04T08:11:21.715Z,858.34
2018-07-04T08:12:21.591Z,858.35
2018-07-04T08:13:21.472Z,858.38
2018-07-04T08:14:21.358Z,858.37
2018-07-04T08:15:21.233Z,858.33
2018-07-04T08:16:21.121Z,858.38
2018-07-04T08:17:20.998Z,858.37
2018-07-04T08:18:20.883Z,858.37
2018-07-04T08:19:20.763Z,858.38
2018-07-04T08:20:20.644Z,858.37
2018-07-04T08:21:20.523Z,858.36
2018-07-04T08:22:20.404Z,858.38
2018-07-04T08:23:20.289Z,858.37
2018-07-04T08:24:20.172Z,858.34
2018-07-04T08:25:20.053Z,858.39
2018-07-04T08:26:19.948Z,858.40
2018-07-04T08:27:19.818Z,858.40
2018-07-04T08:28:19.700Z,858.40
2018-07-04T08:29:19.579Z,858.40
2018-07-04T08:30:19.460Z,858.40
2018-07-04T08:31:19.341Z,858.44
2018-07-04T08:32:19.225Z,858.39
2018-07-04T08:33:19.105Z,858.45
2018-07-04T08:34:18.987Z,858.41
2018-07-04T08:35:18.872Z,858.43
2018-07-04T08:36:18.755Z,858.44
2018-07-04T08:37:18.635Z,858.46
2018-07-04T08:38:18.520Z,858.42
2018-07-04T08:39:18.407Z,858.44
2018-07-04T08:40:18.283Z,858.45
2018-07-04T08:41:18.167Z,858.43
2018-07-04T08:42:18.045Z,858.46
2018-07-04T08:43:17.927Z,858.46
2018-07-04T08:44:17.809Z,858.46
2018-07-04T08:45:17.691Z,858.49
2018-07-04T08:46:17.572Z,858.50
2018-07-04T08:47:17.457Z,858.50
2018-07-04T08:48:17.338Z,858.51
2018-07-04T08:49:17.215Z,858.50
2018-07-04T08:50:17.098Z,858.50
2018-07-04T08:51:17.236Z,858.47
2018-07-04T08:52:16.862Z,858.50
2018-07-04T08:53:16.744Z,858.48
2018-07-04T08:54:16.625Z,858.53
2018-07-04T08:55:16.506Z,858.55
2018-07-04T08:56:16.390Z,858.51
2018-07-04T08:57:16.273Z,858.55
2018-07-04T08:58:16.197Z,858.52
2018-07-04T08:59:16.034Z,858.50
2018-07-04T09:00:15.917Z,858.49
2018-07-04T09:01:15.801Z,858.47
2018-07-04T09:02:15.684Z,858.49
2018-07-04T09:03:15.565Z,858.49
2018-07-04T09:04:15.448Z,858.45
2018-07-04T09:05:15.327Z,858.45
2018-07-04T09:06:15.212Z,858.46
2018-07-04T09:07:15.093Z,858.43
2018-07-04T09:08:14.975Z,858.44
2018-07-04T09:09:14.859Z,858.47
2018-07-04T09:10:14.743Z,858.46
2018-07-04T09:11:14.634Z,858.49
2018-07-04T09:12:14.506Z,858.49
2018-07-04T09:13:14.390Z,858.48
2018-07-04T09:14:14.271Z,858.53
2018-07-04T09:15:14.199Z,858.52
2018-07-04T09:16:14.038Z,858.53
2018-07-04T09:17:13.951Z,858.53
2018-07-04T09:18:13.811Z,858.56
2018-07-04T09:19:13.689Z,858.54
2018-07-04T09:20:13.564Z,858.54
2018-07-04T09:21:13.445Z,858.58
2018-07-04T09:22:13.329Z,858.56
2018-07-04T09:23:13.209Z,858.55
2018-07-04T09:24:13.095Z,858.54
2018-07-04T09:25:12.973Z,858.55
2018-07-04T09:26:12.857Z,858.54
2018-07-04T09:27:12.742Z,858.55
2018-07-04T09:28:12.622Z,858.57
2018-07-04T09:29:12.501Z,858.54
2018-07-04T09:30:12.385Z,858.51
2018-07-04T09:31:12.267Z,858.52
2018-07-04T09:32:12.150Z,858.53
2018-07-04T09:33:12.034Z,858.53
2018-07-04T09:34:11.916Z,858.52
2018-07-04T09:35:11.797Z,858.51
2018-07-04T09:36:11.686Z,858.48
2018-07-04T09:37:11.560Z,858.46
2018-07-04T09:38:11.443Z,858.45
2018-07-04T09:39:11.323Z,858.41
2018-07-04T09:40:11.205Z,858.43
2018-07-04T09:41:11.089Z,858.42
2018-07-04T09:42:10.969Z,858.39
2018-07-04T09:43:10.856Z,858.34
2018-07-04T09:44:10.735Z,858.30
2018-07-04T09:45:10.616Z,858.28
2018-07-04T09:46:10.504Z,858.28
2018-07-04T09:47:10.380Z,858.25
2018-07-04T09:48:10.264Z,858.25
2018-07-04T09:49:10.144Z,858.21
2018-07-04T09:50:10.027Z,858.20
2018-07-04T09:51:09.911Z,858.20
2018-07-04T09:52:09.824Z,858.20
2018-07-04T09:53:09.675Z,858.17
2018-07-04T09:54:09.558Z,858.18
2018-07-04T09:55:09.447Z,858.19
2018-07-04T09:56:09.328Z,858.19
2018-07-04T09:57:09.209Z,858.15
2018-07-04T09:58:09.093Z,858.14
2018-07-04T09:59:08.975Z,858.15
2018-07-04T10:00:08.859Z,858.15
2018-07-04T10:01:08.739Z,858.17
2018-07-04T10:02:08.623Z,858.15
2018-07-04T10:03:08.508Z,858.15
2018-07-04T10:04:08.391Z,858.17
2018-07-04T10:05:08.276Z,858.13
2018-07-04T10:06:08.158Z,858.12
2018-07-04T10:07:08.045Z,858.12
2018-07-04T10:08:07.927Z,858.18
2018-07-04T10:09:07.809Z,858.16
2018-07-04T10:10:07.690Z,858.16
2018-07-04T10:11:07.574Z,858.17
2018-07-04T10:12:07.458Z,858.15
2018-07-04T10:13:07.343Z,858.17
2018-07-04T10:14:07.223Z,858.22
2018-07-04T10:15:07.112Z,858.19
2018-07-04T10:16:06.994Z,858.22
2018-07-04T10:17:06.877Z,858.19
2018-07-04T10:18:06.759Z,858.17
2018-07-04T10:19:06.648Z,858.19
2018-07-04T10:20:06.531Z,858.16
2018-07-04T10:21:06.414Z,858.21
2018-07-04T10:22:06.295Z,858.19
2018-07-04T10:23:06.181Z,858.20
2018-07-04T10:24:06.066Z,858.19
2018-07-04T10:25:05.951Z,858.20
2018-07-04T10:26:05.832Z,858.19
2018-07-04T10:27:05.717Z,858.18
2018-07-04T10:28:05.600Z,858.16
2018-07-04T10:29:05.487Z,858.14
2018-07-04T10:30:05.370Z,858.15
2018-07-04T10:31:05.255Z,858.13
2018-07-04T10:32:05.144Z,858.15
2018-07-04T10:33:05.024Z,858.15
2018-07-04T10:34:04.910Z,858.17
2018-07-04T10:35:04.791Z,858.15
2018-07-04T10:36:04.678Z,858.18
2018-07-04T10:37:04.562Z,858.17
2018-07-04T10:38:04.444Z,858.18
2018-07-04T10:39:04.329Z,858.14
2018-07-04T10:40:04.213Z,858.19
2018-07-04T10:41:04.096Z,858.19
2018-07-04T10:42:03.994Z,858.19
2018-07-04T10:43:03.865Z,858.16
2018-07-04T10:44:03.754Z,858.14
2018-07-04T10:45:03.637Z,858.14
2018-07-04T10:46:03.516Z,858.18
2018-07-04T10:47:03.399Z,858.13
2018-07-04T10:48:03.284Z,858.15
2018-07-04T10:49:03.166Z,858.16
2018-07-04T10:50:03.050Z,858.12
2018-07-04T10:51:02.964Z,858.11
2018-07-04T10:52:02.816Z,858.12
2018-07-04T10:53:02.698Z,858.11
2018-07-04T10:54:02.584Z,858.09
2018-07-04T10:55:05.443Z,858.07
2018-07-04T10:56:02.352Z,858.10
2018-07-04T10:57:02.235Z,858.08
2018-07-04T10:58:02.126Z,858.09
2018-07-04T10:59:02.004Z,858.12
2018-07-04T11:00:02.098Z,858.11
2018-07-04T11:01:01.771Z,858.10
2018-07-04T11:02:01.665Z,858.08
2018-07-04T11:03:01.538Z,858.08
2018-07-04T11:04:01.420Z,858.08
2018-07-04T11:05:01.609Z,858.08
2018-07-04T11:06:01.190Z,858.10
2018-07-04T11:07:01.072Z,858.09
2018-07-04T11:08:00.957Z,858.10
2018-07-04T11:09:00.838Z,858.03
2018-07-04T11:10:00.724Z,858.08
2018-07-04T11:11:00.608Z,858.03
2018-07-04T11:12:00.489Z,858.00
2018-07-04T11:13:00.373Z,858.00
2018-07-04T11:14:00.257Z,858.01
2018-07-04T11:15:00.141Z,857.99
2018-07-04T11:16:00.040Z,858.02
2018-07-04T11:17:00.024Z,858.02
2018-07-04T11:18:02.447Z,857.99
2018-07-04T11:18:59.677Z,858.05
2018-07-04T11:19:59.935Z,858.08
2018-07-04T11:20:59.445Z,858.05
2018-07-04T11:21:59.330Z,858.06
2018-07-04T11:22:59.215Z,858.08
2018-07-04T11:23:59.098Z,858.05
2018-07-04T11:24:58.984Z,858.07
2018-07-04T11:25:58.869Z,858.04
2018-07-04T11:26:58.754Z,858.07
2018-07-04T11:27:58.636Z,858.04
2018-07-04T11:28:58.523Z,858.07
2018-07-04T11:29:58.404Z,858.08
2018-07-04T11:30:58.289Z,858.07
2018-07-04T11:31:58.174Z,858.08
2018-07-04T11:32:58.056Z,858.07
2018-07-04T11:33:57.944Z,858.07
2018-07-04T11:34:57.825Z,858.01
2018-07-04T11:35:57.712Z,858.06
2018-07-04T11:36:57.600Z,858.09
2018-07-04T11:37:57.480Z,858.10
2018-07-04T11:38:57.364Z,858.05
2018-07-04T11:39:57.248Z,858.10
2018-07-04T11:40:57.129Z,858.16
2018-07-04T11:41:57.012Z,858.13
2018-07-04T11:42:56.896Z,858.15
2018-07-04T11:43:56.780Z,858.28
2018-07-04T11:44:56.662Z,858.27
2018-07-04T11:45:56.547Z,858.36
2018-07-04T11:46:56.430Z,858.34
2018-07-04T11:47:56.311Z,858.37
2018-07-04T11:48:56.197Z,858.31
2018-07-04T11:49:56.075Z,858.34
2018-07-04T11:50:55.962Z,858.35
2018-07-04T11:51:55.840Z,858.34
2018-07-04T11:52:55.721Z,858.31
2018-07-04T11:53:55.601Z,858.29
2018-07-04T11:54:55.484Z,858.32
2018-07-04T11:55:55.363Z,858.41
2018-07-04T11:56:55.288Z,858.45
2018-07-04T11:57:55.694Z,858.52
2018-07-04T11:58:55.007Z,858.56
2018-07-04T11:59:54.938Z,858.56
2018-07-04T12:00:54.909Z,858.59
2018-07-04T12:01:55.021Z,858.58
2018-07-04T12:02:54.532Z,858.58
2018-07-04T12:04:02.513Z,858.59
2018-07-04T12:06:02.617Z,858.58
2018-07-04T12:07:02.867Z,858.59
2018-07-04T12:08:55.109Z,858.60
2018-07-04T12:09:55.035Z,858.53
2018-07-04T12:11:47.737Z,858.50
2018-07-04T12:12:47.249Z,858.51
2018-07-04T12:14:40.181Z,858.47
2018-07-04T12:15:40.014Z,858.51
2018-07-04T12:17:32.800Z,858.48
2018-07-04T12:18:32.331Z,858.47
2018-07-04T12:20:25.344Z,858.56
2018-07-04T12:21:24.868Z,858.56
2018-07-04T12:23:17.606Z,858.61
2018-07-04T12:24:17.435Z,858.63
2018-07-04T12:26:10.614Z,858.60
2018-07-04T12:27:10.359Z,858.65
2018-07-04T12:29:02.977Z,858.62
2018-07-04T12:30:02.547Z,858.60
2018-07-04T12:31:57.299Z,858.54
2018-07-04T12:32:57.466Z,858.55
2018-07-04T12:34:50.163Z,858.53
2018-07-04T12:35:49.354Z,858.48
2018-07-04T12:37:42.342Z,858.50
2018-07-04T12:38:41.910Z,858.50
2018-07-04T12:40:36.421Z,858.54
2018-07-04T12:41:34.485Z,858.55
2018-07-04T12:43:27.190Z,858.49
2018-07-04T12:44:34.542Z,858.53
2018-07-04T12:46:32.843Z,858.54
2018-07-04T12:47:32.307Z,858.52
2018-07-04T12:49:25.141Z,858.49